sensor_id;sensor_type;location;lat;lon;timestamp;pressure;altitude;pressure_sealevel;temperature;humidity
78643;BME280;67954;47.618;17.606;2023-08-06T00:00:03;98919.69;;;16.87;100.00
78643;BME280;67954;47.618;17.606;2023-08-06T00:00:35;98928.03;;;16.86;100.00
78643;BME280;67954;47.618;17.606;2023-08-06T00:01:06;98928.69;;;16.81;100.00
78643;BME280;67954;47.618;17.606;2023-08-06T00:01:38;98932.03;;;16.76;100.00
78643;BME280;67954;47.618;17.606;2023-08-06T00:02:09;98929.78;;;16.73;100.00
78643;BME280;67954;47.618;17.606;2023-08-06T00:02:39;98926.19;;;16.79;100.00
78643;BME280;67954;47.618;17.606;2023-08-06T00:03:11;98933.28;;;16.81;100.00
78643;BME280;67954;47.618;17.606;2023-08-06T00:03:42;98928.28;;;16.77;100.00
78643;BME280;67954;47.618;17.606;2023-08-06T00:04:13;98933.88;;;16.83;100.00
78643;BME280;67954;47.618;17.606;2023-08-06T00:04:43;98929.09;;;16.85;100.00
78643;BME280;67954;47.618;17.606;2023-08-06T00:05:15;98926.97;;;16.87;100.00
78643;BME280;67954;47.618;17.606;2023-08-06T00:05:48;98928.25;;;16.84;100.00
78643;BME280;67954;47.618;17.606;2023-08-06T00:06:19;98929.91;;;16.85;100.00
78643;BME280;67954;47.618;17.606;2023-08-06T00:06:50;98928.06;;;16.79;100.00
78643;BME280;67954;47.618;17.606;2023-08-06T00:07:21;98929.91;;;16.85;100.00
78643;BME280;67954;47.618;17.606;2023-08-06T00:07:52;98938.66;;;16.87;100.00
78643;BME280;67954;47.618;17.606;2023-08-06T00:08:23;98934.44;;;16.91;100.00
78643;BME280;67954;47.618;17.606;2023-08-06T00:08:54;98938.19;;;16.90;100.00
78643;BME280;67954;47.618;17.606;2023-08-06T00:09:26;98938.59;;;16.94;100.00
78643;BME280;67954;47.618;17.606;2023-08-06T00:09:57;98941.94;;;16.96;100.00
78643;BME280;67954;47.618;17.606;2023-08-06T00:10:28;98947.13;;;16.97;100.00
78643;BME280;67954;47.618;17.606;2023-08-06T00:10:58;98943.16;;;17.00;100.00
78643;BME280;67954;47.618;17.606;2023-08-06T00:11:30;98946.69;;;17.00;100.00
78643;BME280;67954;47.618;17.606;2023-08-06T00:12:01;98946.44;;;17.02;100.00
78643;BME280;67954;47.618;17.606;2023-08-06T00:12:32;98954.59;;;17.02;100.00
78643;BME280;67954;47.618;17.606;2023-08-06T00:13:03;98959.88;;;16.97;100.00
78643;BME280;67954;47.618;17.606;2023-08-06T00:13:34;98954.44;;;16.97;100.00
78643;BME280;67954;47.618;17.606;2023-08-06T00:14:05;98955.50;;;16.96;100.00
78643;BME280;67954;47.618;17.606;2023-08-06T00:14:36;98957.16;;;16.97;100.00
78643;BME280;67954;47.618;17.606;2023-08-06T00:15:08;98954.09;;;16.87;100.00
78643;BME280;67954;47.618;17.606;2023-08-06T00:15:41;98957.03;;;16.85;100.00
78643;BME280;67954;47.618;17.606;2023-08-06T00:16:12;98962.00;;;16.88;100.00
78643;BME280;67954;47.618;17.606;2023-08-06T00:16:44;98968.03;;;16.90;100.00
78643;BME280;67954;47.618;17.606;2023-08-06T00:17:16;98970.31;;;16.93;100.00
78643;BME280;67954;47.618;17.606;2023-08-06T00:17:46;98963.63;;;16.96;100.00
78643;BME280;67954;47.618;17.606;2023-08-06T00:18:17;98965.94;;;16.92;100.00
78643;BME280;67954;47.618;17.606;2023-08-06T00:18:48;98969.50;;;16.93;100.00
78643;BME280;67954;47.618;17.606;2023-08-06T00:19:20;98968.00;;;16.97;100.00
78643;BME280;67954;47.618;17.606;2023-08-06T00:19:50;98971.94;;;17.01;100.00
78643;BME280;67954;47.618;17.606;2023-08-06T00:20:21;98974.00;;;17.05;100.00
78643;BME280;67954;47.618;17.606;2023-08-06T00:20:52;98975.72;;;17.00;100.00
78643;BME280;67954;47.618;17.606;2023-08-06T00:21:24;98973.38;;;17.03;100.00
78643;BME280;67954;47.618;17.606;2023-08-06T00:21:55;98972.09;;;17.06;100.00
78643;BME280;67954;47.618;17.606;2023-08-06T00:22:25;98967.50;;;17.06;100.00
78643;BME280;67954;47.618;17.606;2023-08-06T00:22:56;98977.31;;;17.07;100.00
78643;BME280;67954;47.618;17.606;2023-08-06T00:23:28;98968.97;;;17.09;100.00
78643;BME280;67954;47.618;17.606;2023-08-06T00:23:59;98979.38;;;17.12;100.00
78643;BME280;67954;47.618;17.606;2023-08-06T00:24:29;98975.88;;;17.05;100.00
78643;BME280;67954;47.618;17.606;2023-08-06T00:25:00;98971.50;;;17.04;100.00
78643;BME280;67954;47.618;17.606;2023-08-06T00:25:32;98971.50;;;17.04;100.00
78643;BME280;67954;47.618;17.606;2023-08-06T00:26:03;98976.91;;;17.04;100.00
78643;BME280;67954;47.618;17.606;2023-08-06T00:26:34;98977.97;;;17.03;100.00
78643;BME280;67954;47.618;17.606;2023-08-06T00:27:06;98980.47;;;17.04;100.00
78643;BME280;67954;47.618;17.606;2023-08-06T00:27:36;98978.44;;;17.00;100.00
78643;BME280;67954;47.618;17.606;2023-08-06T00:28:08;98980.34;;;16.93;100.00
78643;BME280;67954;47.618;17.606;2023-08-06T00:28:39;98980.06;;;17.01;100.00
78643;BME280;67954;47.618;17.606;2023-08-06T00:29:11;98989.94;;;16.95;100.00
78643;BME280;67954;47.618;17.606;2023-08-06T00:29:42;98981.25;;;16.87;100.00
78643;BME280;67954;47.618;17.606;2023-08-06T00:30:12;98988.91;;;16.90;100.00
78643;BME280;67954;47.618;17.606;2023-08-06T00:30:44;98980.19;;;16.88;100.00
78643;BME280;67954;47.618;17.606;2023-08-06T00:31:16;98982.94;;;16.81;100.00
78643;BME280;67954;47.618;17.606;2023-08-06T00:31:47;98978.97;;;16.84;100.00
78643;BME280;67954;47.618;17.606;2023-08-06T00:32:18;98991.63;;;16.90;100.00
78643;BME280;67954;47.618;17.606;2023-08-06T00:32:49;98987.25;;;16.89;100.00
78643;BME280;67954;47.618;17.606;2023-08-06T00:33:20;98984.94;;;16.92;100.00
78643;BME280;67954;47.618;17.606;2023-08-06T00:33:51;98983.47;;;16.96;100.00
78643;BME280;67954;47.618;17.606;2023-08-06T00:34:22;98983.47;;;16.96;100.00
78643;BME280;67954;47.618;17.606;2023-08-06T00:34:52;98992.81;;;17.00;100.00
78643;BME280;67954;47.618;17.606;2023-08-06T00:35:24;98991.09;;;17.06;100.00
78643;BME280;67954;47.618;17.606;2023-08-06T00:35:55;98984.63;;;17.07;100.00
78643;BME280;67954;47.618;17.606;2023-08-06T00:36:26;98991.75;;;17.01;100.00
78643;BME280;67954;47.618;17.606;2023-08-06T00:36:56;98989.28;;;17.00;100.00
78643;BME280;67954;47.618;17.606;2023-08-06T00:37:29;98993.63;;;17.01;100.00
78643;BME280;67954;47.618;17.606;2023-08-06T00:38:00;98997.44;;;17.00;100.00
78643;BME280;67954;47.618;17.606;2023-08-06T00:38:31;98991.53;;;17.03;100.00
78643;BME280;67954;47.618;17.606;2023-08-06T00:39:02;98993.19;;;17.04;100.00
78643;BME280;67954;47.618;17.606;2023-08-06T00:39:33;98995.16;;;16.97;100.00
78643;BME280;67954;47.618;17.606;2023-08-06T00:40:06;98991.19;;;16.93;100.00
78643;BME280;67954;47.618;17.606;2023-08-06T00:40:37;98991.59;;;16.96;100.00
78643;BME280;67954;47.618;17.606;2023-08-06T00:41:08;98981.56;;;16.97;100.00
78643;BME280;67954;47.618;17.606;2023-08-06T00:41:38;98988.47;;;16.93;100.00
78643;BME280;67954;47.618;17.606;2023-08-06T00:42:11;98991.19;;;16.93;100.00
78643;BME280;67954;47.618;17.606;2023-08-06T00:42:42;98987.25;;;16.89;100.00
78643;BME280;67954;47.618;17.606;2023-08-06T00:43:15;98985.81;;;16.86;100.00
78643;BME280;67954;47.618;17.606;2023-08-06T00:43:47;98987.25;;;16.89;100.00
78643;BME280;67954;47.618;17.606;2023-08-06T00:44:17;98989.75;;;16.90;100.00
78643;BME280;67954;47.618;17.606;2023-08-06T00:44:48;98982.00;;;16.94;100.00
78643;BME280;67954;47.618;17.606;2023-08-06T00:45:19;98980.97;;;16.95;100.00
78643;BME280;67954;47.618;17.606;2023-08-06T00:45:52;98972.81;;;16.95;100.00
78643;BME280;67954;47.618;17.606;2023-08-06T00:46:23;98975.53;;;16.95;100.00
78643;BME280;67954;47.618;17.606;2023-08-06T00:46:55;98978.25;;;16.95;100.00
78643;BME280;67954;47.618;17.606;2023-08-06T00:47:26;98972.59;;;16.96;100.00
78643;BME280;67954;47.618;17.606;2023-08-06T00:47:58;98962.16;;;17.00;100.00
78643;BME280;67954;47.618;17.606;2023-08-06T00:48:29;98972.16;;;16.99;100.00
78643;BME280;67954;47.618;17.606;2023-08-06T00:49:00;98973.00;;;17.00;100.00
78643;BME280;67954;47.618;17.606;2023-08-06T00:49:31;98975.97;;;16.92;100.00
78643;BME280;67954;47.618;17.606;2023-08-06T00:50:03;98972.19;;;16.93;100.00
78643;BME280;67954;47.618;17.606;2023-08-06T00:50:34;98973.66;;;16.95;100.00
78643;BME280;67954;47.618;17.606;2023-08-06T00:51:05;98969.47;;;16.99;100.00
78643;BME280;67954;47.618;17.606;2023-08-06T00:51:37;98984.06;;;16.98;100.00
78643;BME280;67954;47.618;17.606;2023-08-06T00:52:08;98972.38;;;16.98;100.00
78643;BME280;67954;47.618;17.606;2023-08-06T00:52:40;98980.75;;;16.96;100.00
78643;BME280;67954;47.618;17.606;2023-08-06T00:53:12;98979.28;;;16.94;100.00
78643;BME280;67954;47.618;17.606;2023-08-06T00:53:43;98983.50;;;16.90;100.00
78643;BME280;67954;47.618;17.606;2023-08-06T00:54:15;98980.84;;;16.83;100.00
78643;BME280;67954;47.618;17.606;2023-08-06T00:54:45;98981.88;;;16.82;100.00
78643;BME280;67954;47.618;17.606;2023-08-06T00:55:18;98977.84;;;16.91;100.00
78643;BME280;67954;47.618;17.606;2023-08-06T00:55:49;98975.56;;;16.88;100.00
78643;BME280;67954;47.618;17.606;2023-08-06T00:56:19;98981.81;;;16.89;100.00
78643;BME280;67954;47.618;17.606;2023-08-06T00:56:50;98980.19;;;16.88;100.00
78643;BME280;67954;47.618;17.606;2023-08-06T00:57:24;98978.25;;;16.95;100.00
78643;BME280;67954;47.618;17.606;2023-08-06T00:57:56;98971.56;;;16.97;100.00
78643;BME280;67954;47.618;17.606;2023-08-06T00:58:28;98970.72;;;16.97;100.00
78643;BME280;67954;47.618;17.606;2023-08-06T00:58:59;98975.72;;;17.00;100.00
78643;BME280;67954;47.618;17.606;2023-08-06T00:59:31;98977.41;;;16.94;100.00
78643;BME280;67954;47.618;17.606;2023-08-06T01:00:03;98974.28;;;16.97;100.00
78643;BME280;67954;47.618;17.606;2023-08-06T01:00:34;98975.94;;;16.98;100.00
78643;BME280;67954;47.618;17.606;2023-08-06T01:01:07;98979.09;;;16.95;100.00
78643;BME280;67954;47.618;17.606;2023-08-06T01:01:39;98981.38;;;16.92;100.00
78643;BME280;67954;47.618;17.606;2023-08-06T01:02:10;98973.31;;;16.85;100.00
78643;BME280;67954;47.618;17.606;2023-08-06T01:02:41;98978.13;;;16.83;100.00
78643;BME280;67954;47.618;17.606;2023-08-06T01:03:12;98975.81;;;16.87;100.00
78643;BME280;67954;47.618;17.606;2023-08-06T01:03:43;98975.56;;;16.88;100.00
78643;BME280;67954;47.618;17.606;2023-08-06T01:04:15;98970.13;;;16.88;100.00
78643;BME280;67954;47.618;17.606;2023-08-06T01:04:46;98969.97;;;16.83;100.00
78643;BME280;67954;47.618;17.606;2023-08-06T01:05:18;98970.81;;;16.84;100.00
78643;BME280;67954;47.618;17.606;2023-08-06T01:05:50;98972.28;;;16.79;100.00
78643;BME280;67954;47.618;17.606;2023-08-06T01:06:35;98971.22;;;16.87;100.00
78643;BME280;67954;47.618;17.606;2023-08-06T01:07:17;98971.56;;;16.97;100.00
78643;BME280;67954;47.618;17.606;2023-08-06T01:08:06;98970.31;;;16.93;100.00
78643;BME280;67954;47.618;17.606;2023-08-06T01:08:47;98970.09;;;16.95;100.00
78643;BME280;67954;47.618;17.606;2023-08-06T01:09:31;98967.41;;;16.95;100.00
78643;BME280;67954;47.618;17.606;2023-08-06T01:10:23;98967.78;;;16.98;100.00
78643;BME280;67954;47.618;17.606;2023-08-06T01:11:07;98960.50;;;16.99;100.00
78643;BME280;67954;47.618;17.606;2023-08-06T01:11:56;98969.47;;;16.99;100.00
78643;BME280;67954;47.618;17.606;2023-08-06T01:12:37;98965.69;;;17.00;100.00
78643;BME280;67954;47.618;17.606;2023-08-06T01:13:17;98955.06;;;16.99;100.00
78643;BME280;67954;47.618;17.606;2023-08-06T01:13:59;98953.41;;;16.98;100.00
78643;BME280;67954;47.618;17.606;2023-08-06T01:14:39;98959.03;;;16.96;100.00
78643;BME280;67954;47.618;17.606;2023-08-06T01:15:16;98960.75;;;16.91;100.00
78643;BME280;67954;47.618;17.606;2023-08-06T01:15:55;98961.53;;;16.98;100.00
78643;BME280;67954;47.618;17.606;2023-08-06T01:16:30;98956.94;;;16.98;100.00
78643;BME280;67954;47.618;17.606;2023-08-06T01:17:01;98954.25;;;16.92;100.00
78643;BME280;67954;47.618;17.606;2023-08-06T01:17:36;98957.16;;;16.97;100.00
78643;BME280;67954;47.618;17.606;2023-08-06T01:18:07;98961.06;;;17.01;100.00
78643;BME280;67954;47.618;17.606;2023-08-06T01:18:38;98956.03;;;17.04;100.00
78643;BME280;67954;47.618;17.606;2023-08-06T01:19:16;98956.72;;;17.00;100.00
78643;BME280;67954;47.618;17.606;2023-08-06T01:19:47;98951.72;;;16.97;100.00
78643;BME280;67954;47.618;17.606;2023-08-06T01:20:17;98953.44;;;16.91;100.00
78643;BME280;67954;47.618;17.606;2023-08-06T01:20:50;98954.88;;;16.94;100.00
78643;BME280;67954;47.618;17.606;2023-08-06T01:21:21;98949.66;;;16.92;100.00
78643;BME280;67954;47.618;17.606;2023-08-06T01:21:52;98954.88;;;16.94;100.00
78643;BME280;67954;47.618;17.606;2023-08-06T01:22:23;98947.56;;;16.94;100.00
78643;BME280;67954;47.618;17.606;2023-08-06T01:22:55;98945.47;;;16.96;100.00
78643;BME280;67954;47.618;17.606;2023-08-06T01:23:26;98947.78;;;16.93;100.00
78643;BME280;67954;47.618;17.606;2023-08-06T01:23:57;98948.69;;;16.87;100.00
78643;BME280;67954;47.618;17.606;2023-08-06T01:24:27;98947.63;;;16.88;100.00
78643;BME280;67954;47.618;17.606;2023-08-06T01:24:59;98949.34;;;16.82;100.00
78643;BME280;67954;47.618;17.606;2023-08-06T01:25:34;98941.13;;;16.89;100.00
78643;BME280;67954;47.618;17.606;2023-08-06T01:26:11;98936.50;;;16.96;100.00
78643;BME280;67954;47.618;17.606;2023-08-06T01:26:51;98943.81;;;16.95;100.00
78643;BME280;67954;47.618;17.606;2023-08-06T01:27:30;98941.31;;;16.94;100.00
78643;BME280;67954;47.618;17.606;2023-08-06T01:28:11;98927.53;;;16.95;100.00
78643;BME280;67954;47.618;17.606;2023-08-06T01:28:49;98927.53;;;16.95;100.00
78643;BME280;67954;47.618;17.606;2023-08-06T01:29:25;98930.84;;;16.97;100.00
78643;BME280;67954;47.618;17.606;2023-08-06T01:30:03;98925.88;;;16.94;100.00
78643;BME280;67954;47.618;17.606;2023-08-06T01:30:39;98937.34;;;16.96;100.00
78643;BME280;67954;47.618;17.606;2023-08-06T01:31:22;98931.50;;;16.93;100.00
78643;BME280;67954;47.618;17.606;2023-08-06T01:31:56;98927.31;;;16.97;100.00
78643;BME280;67954;47.618;17.606;2023-08-06T01:32:30;98928.38;;;16.96;100.00
78643;BME280;67954;47.618;17.606;2023-08-06T01:33:04;98934.41;;;16.98;100.00
78643;BME280;67954;47.618;17.606;2023-08-06T01:33:41;98931.06;;;16.96;100.00
78643;BME280;67954;47.618;17.606;2023-08-06T01:34:19;98928.38;;;16.96;100.00
78643;BME280;67954;47.618;17.606;2023-08-06T01:34:54;98931.69;;;16.98;100.00
78643;BME280;67954;47.618;17.606;2023-08-06T01:35:27;98932.66;;;17.03;100.00
78643;BME280;67954;47.618;17.606;2023-08-06T01:36:02;98935.84;;;17.00;100.00
78643;BME280;67954;47.618;17.606;2023-08-06T01:36:35;98930.03;;;16.97;100.00
78643;BME280;67954;47.618;17.606;2023-08-06T01:37:06;98923.09;;;17.01;100.00
78643;BME280;67954;47.618;17.606;2023-08-06T01:37:38;98925.22;;;16.99;100.00
78643;BME280;67954;47.618;17.606;2023-08-06T01:38:09;98921.88;;;16.97;100.00
78643;BME280;67954;47.618;17.606;2023-08-06T01:38:41;98927.09;;;16.98;100.00
78643;BME280;67954;47.618;17.606;2023-08-06T01:39:12;98921.44;;;17.00;100.00
78643;BME280;67954;47.618;17.606;2023-08-06T01:39:43;98923.97;;;16.95;100.00
78643;BME280;67954;47.618;17.606;2023-08-06T01:40:14;98927.53;;;16.95;100.00
78643;BME280;67954;47.618;17.606;2023-08-06T01:40:46;98928.19;;;16.91;100.00
78643;BME280;67954;47.618;17.606;2023-08-06T01:41:16;98930.47;;;16.94;100.00
78643;BME280;67954;47.618;17.606;2023-08-06T01:41:47;98931.06;;;16.96;100.00
78643;BME280;67954;47.618;17.606;2023-08-06T01:42:18;98927.94;;;16.99;100.00
78643;BME280;67954;47.618;17.606;2023-08-06T01:42:50;98927.72;;;17.00;100.00
78643;BME280;67954;47.618;17.606;2023-08-06T01:43:21;98929.34;;;17.01;100.00
78643;BME280;67954;47.618;17.606;2023-08-06T01:43:51;98926.03;;;16.99;100.00
78643;BME280;67954;47.618;17.606;2023-08-06T01:44:22;98933.16;;;16.94;100.00
78643;BME280;67954;47.618;17.606;2023-08-06T01:44:54;98927.34;;;16.90;100.00
78643;BME280;67954;47.618;17.606;2023-08-06T01:45:25;98930.91;;;16.91;100.00
78643;BME280;67954;47.618;17.606;2023-08-06T01:45:55;98925.03;;;16.94;100.00
78643;BME280;67954;47.618;17.606;2023-08-06T01:46:26;98933.78;;;16.96;100.00
78643;BME280;67954;47.618;17.606;2023-08-06T01:46:58;98941.50;;;16.99;100.00
78643;BME280;67954;47.618;17.606;2023-08-06T01:47:29;98929.81;;;16.98;100.00
78643;BME280;67954;47.618;17.606;2023-08-06T01:47:59;98929.81;;;16.98;100.00
78643;BME280;67954;47.618;17.606;2023-08-06T01:48:30;98928.16;;;16.97;100.00
78643;BME280;67954;47.618;17.606;2023-08-06T01:49:02;98932.31;;;17.00;100.00
78643;BME280;67954;47.618;17.606;2023-08-06T01:49:33;98923.56;;;16.98;100.00
78643;BME280;67954;47.618;17.606;2023-08-06T01:50:04;98935.44;;;16.97;100.00
78643;BME280;67954;47.618;17.606;2023-08-06T01:50:35;98929.84;;;16.92;100.00
78643;BME280;67954;47.618;17.606;2023-08-06T01:51:08;98931.34;;;16.88;100.00
78643;BME280;67954;47.618;17.606;2023-08-06T01:51:39;98922.97;;;16.89;100.00
78643;BME280;67954;47.618;17.606;2023-08-06T01:52:10;98921.72;;;16.92;100.00
78643;BME280;67954;47.618;17.606;2023-08-06T01:52:41;98922.75;;;16.91;100.00
78643;BME280;67954;47.618;17.606;2023-08-06T01:53:12;98924.03;;;16.88;100.00
78643;BME280;67954;47.618;17.606;2023-08-06T01:53:43;98923.38;;;16.93;100.00
78643;BME280;67954;47.618;17.606;2023-08-06T01:54:14;98921.50;;;16.93;100.00
78643;BME280;67954;47.618;17.606;2023-08-06T01:54:45;98918.38;;;16.90;100.00
78643;BME280;67954;47.618;17.606;2023-08-06T01:55:16;98928.19;;;16.91;100.00
78643;BME280;67954;47.618;17.606;2023-08-06T01:55:48;98925.69;;;16.89;100.00
78643;BME280;67954;47.618;17.606;2023-08-06T01:56:20;98926.09;;;16.93;100.00
78643;BME280;67954;47.618;17.606;2023-08-06T01:56:51;98924.19;;;16.93;100.00
78643;BME280;67954;47.618;17.606;2023-08-06T01:57:21;98931.09;;;16.89;100.00
78643;BME280;67954;47.618;17.606;2023-08-06T01:57:53;98921.94;;;16.90;100.00
78643;BME280;67954;47.618;17.606;2023-08-06T01:58:24;98923.22;;;16.88;100.00
78643;BME280;67954;47.618;17.606;2023-08-06T01:58:55;98924.84;;;16.89;100.00
78643;BME280;67954;47.618;17.606;2023-08-06T01:59:26;98920.88;;;16.91;100.00
78643;BME280;67954;47.618;17.606;2023-08-06T01:59:56;98922.75;;;16.91;100.00
78643;BME280;67954;47.618;17.606;2023-08-06T02:00:28;98920.25;;;16.89;100.00
78643;BME280;67954;47.618;17.606;2023-08-06T02:01:00;98921.50;;;16.93;100.00
78643;BME280;67954;47.618;17.606;2023-08-06T02:01:31;98916.06;;;16.93;100.00
78643;BME280;67954;47.618;17.606;2023-08-06T02:02:02;98917.31;;;16.91;100.00
78643;BME280;67954;47.618;17.606;2023-08-06T02:02:34;98921.94;;;16.90;100.00
78643;BME280;67954;47.618;17.606;2023-08-06T02:03:05;98916.72;;;16.89;100.00
78643;BME280;67954;47.618;17.606;2023-08-06T02:03:35;98911.97;;;16.84;100.00
78643;BME280;67954;47.618;17.606;2023-08-06T02:04:07;98921.38;;;16.82;100.00
78643;BME280;67954;47.618;17.606;2023-08-06T02:04:38;98913.25;;;16.82;100.00
78643;BME280;67954;47.618;17.606;2023-08-06T02:05:09;98915.72;;;16.83;100.00
78643;BME280;67954;47.618;17.606;2023-08-06T02:05:40;98912.94;;;16.90;100.00
78643;BME280;67954;47.618;17.606;2023-08-06T02:06:13;98921.09;;;16.90;100.00
78643;BME280;67954;47.618;17.606;2023-08-06T02:06:44;98913.13;;;16.95;100.00
78643;BME280;67954;47.618;17.606;2023-08-06T02:07:15;98918.56;;;16.95;100.00
78643;BME280;67954;47.618;17.606;2023-08-06T02:07:46;98917.78;;;16.88;100.00
78643;BME280;67954;47.618;17.606;2023-08-06T02:08:17;98922.44;;;16.81;100.00
78643;BME280;67954;47.618;17.606;2023-08-06T02:08:48;98909.47;;;16.83;100.00
78643;BME280;67954;47.618;17.606;2023-08-06T02:09:19;98913.63;;;16.85;100.00
78643;BME280;67954;47.618;17.606;2023-08-06T02:09:51;98909.88;;;16.86;100.00
78643;BME280;67954;47.618;17.606;2023-08-06T02:10:21;98906.56;;;16.84;100.00
78643;BME280;67954;47.618;17.606;2023-08-06T02:10:52;98917.81;;;16.81;100.00
78643;BME280;67954;47.618;17.606;2023-08-06T02:11:24;98907.19;;;16.79;100.00
78643;BME280;67954;47.618;17.606;2023-08-06T02:11:55;98923.25;;;16.81;100.00
78643;BME280;67954;47.618;17.606;2023-08-06T02:12:26;98908.44;;;16.84;100.00
78643;BME280;67954;47.618;17.606;2023-08-06T02:12:57;98919.44;;;16.89;100.00
78643;BME280;67954;47.618;17.606;2023-08-06T02:13:28;98916.50;;;16.90;100.00
78643;BME280;67954;47.618;17.606;2023-08-06T02:13:59;98918.59;;;16.88;100.00
78643;BME280;67954;47.618;17.606;2023-08-06T02:14:30;98915.72;;;16.83;100.00
78643;BME280;67954;47.618;17.606;2023-08-06T02:15:01;98919.31;;;16.77;100.00
78643;BME280;67954;47.618;17.606;2023-08-06T02:15:33;98917.66;;;16.76;100.00
78643;BME280;67954;47.618;17.606;2023-08-06T02:16:06;98919.78;;;16.74;100.00
78643;BME280;67954;47.618;17.606;2023-08-06T02:16:37;98923.31;;;16.74;100.00
78643;BME280;67954;47.618;17.606;2023-08-06T02:17:09;98920.00;;;16.72;100.00
78643;BME280;67954;47.618;17.606;2023-08-06T02:17:40;98918.47;;;16.76;100.00
78643;BME280;67954;47.618;17.606;2023-08-06T02:18:11;98921.03;;;16.71;100.00
78643;BME280;67954;47.618;17.606;2023-08-06T02:18:41;98916.81;;;16.75;100.00
78643;BME280;67954;47.618;17.606;2023-08-06T02:19:13;98918.31;;;16.71;100.00
78643;BME280;67954;47.618;17.606;2023-08-06T02:19:44;98921.66;;;16.73;100.00
78643;BME280;67954;47.618;17.606;2023-08-06T02:20:15;98922.09;;;16.70;100.00
78643;BME280;67954;47.618;17.606;2023-08-06T02:20:54;98919.81;;;16.67;100.00
78643;BME280;67954;47.618;17.606;2023-08-06T02:21:28;98917.53;;;16.64;100.00
78643;BME280;67954;47.618;17.606;2023-08-06T02:21:59;98913.75;;;16.65;100.00
78643;BME280;67954;47.618;17.606;2023-08-06T02:22:30;98917.53;;;16.64;100.00
78643;BME280;67954;47.618;17.606;2023-08-06T02:23:01;98908.16;;;16.60;100.00
78643;BME280;67954;47.618;17.606;2023-08-06T02:23:32;98908.78;;;16.62;100.00
78643;BME280;67954;47.618;17.606;2023-08-06T02:24:03;98917.75;;;16.63;100.00
78643;BME280;67954;47.618;17.606;2023-08-06T02:24:34;98912.78;;;16.53;100.00
78643;BME280;67954;47.618;17.606;2023-08-06T02:25:05;98909.22;;;16.53;100.00
78643;BME280;67954;47.618;17.606;2023-08-06T02:25:37;98908.59;;;16.57;100.00
78643;BME280;67954;47.618;17.606;2023-08-06T02:26:08;98907.13;;;16.55;100.00
78643;BME280;67954;47.618;17.606;2023-08-06T02:26:39;98909.22;;;16.59;100.00
78643;BME280;67954;47.618;17.606;2023-08-06T02:27:09;98909.22;;;16.59;100.00
78643;BME280;67954;47.618;17.606;2023-08-06T02:27:41;98910.25;;;16.58;100.00
78643;BME280;67954;47.618;17.606;2023-08-06T02:28:13;98910.47;;;16.57;100.00
78643;BME280;67954;47.618;17.606;2023-08-06T02:28:43;98910.25;;;16.58;100.00
78643;BME280;67954;47.618;17.606;2023-08-06T02:29:15;98903.34;;;16.62;100.00
78643;BME280;67954;47.618;17.606;2023-08-06T02:29:46;98907.13;;;16.55;100.00
78643;BME280;67954;47.618;17.606;2023-08-06T02:30:17;98909.03;;;16.54;100.00
78643;BME280;67954;47.618;17.606;2023-08-06T02:30:50;98910.28;;;16.52;100.00
78643;BME280;67954;47.618;17.606;2023-08-06T02:31:20;98901.31;;;16.51;100.00
78643;BME280;67954;47.618;17.606;2023-08-06T02:31:51;98902.75;;;16.54;100.00
78643;BME280;67954;47.618;17.606;2023-08-06T02:32:23;98901.78;;;16.48;100.00
78643;BME280;67954;47.618;17.606;2023-08-06T02:32:54;98893.19;;;16.51;100.00
78643;BME280;67954;47.618;17.606;2023-08-06T02:33:24;98895.25;;;16.56;100.00
78643;BME280;67954;47.618;17.606;2023-08-06T02:33:55;98894.41;;;16.55;100.00
78643;BME280;67954;47.618;17.606;2023-08-06T02:34:28;98893.59;;;16.55;100.00
78643;BME280;67954;47.618;17.606;2023-08-06T02:34:59;98894.47;;;16.49;100.00
78643;BME280;67954;47.618;17.606;2023-08-06T02:35:30;98892.97;;;16.53;100.00
78643;BME280;67954;47.618;17.606;2023-08-06T02:36:02;98893.19;;;16.51;100.00
78643;BME280;67954;47.618;17.606;2023-08-06T02:36:35;98888.44;;;16.47;100.00
78643;BME280;67954;47.618;17.606;2023-08-06T02:37:07;98890.69;;;16.50;100.00
78643;BME280;67954;47.618;17.606;2023-08-06T02:37:38;98887.19;;;16.42;100.00
78643;BME280;67954;47.618;17.606;2023-08-06T02:38:10;98893.84;;;16.47;100.00
78643;BME280;67954;47.618;17.606;2023-08-06T02:38:40;98887.19;;;16.42;100.00
78643;BME280;67954;47.618;17.606;2023-08-06T02:39:11;98883.84;;;16.47;100.00
78643;BME280;67954;47.618;17.606;2023-08-06T02:39:43;98877.81;;;16.45;100.00
78643;BME280;67954;47.618;17.606;2023-08-06T02:40:14;98884.06;;;16.46;100.00
78643;BME280;67954;47.618;17.606;2023-08-06T02:40:44;98877.19;;;16.43;100.00
78643;BME280;67954;47.618;17.606;2023-08-06T02:41:15;98882.00;;;16.41;100.00
78643;BME280;67954;47.618;17.606;2023-08-06T02:41:48;98884.72;;;16.41;100.00
78643;BME280;67954;47.618;17.606;2023-08-06T02:42:19;98881.56;;;16.44;100.00
78643;BME280;67954;47.618;17.606;2023-08-06T02:42:49;98887.81;;;16.44;100.00
78643;BME280;67954;47.618;17.606;2023-08-06T02:43:20;98872.63;;;16.37;100.00
78643;BME280;67954;47.618;17.606;2023-08-06T02:43:52;98878.28;;;16.35;100.00
78643;BME280;67954;47.618;17.606;2023-08-06T02:44:27;98876.38;;;16.36;100.00
78643;BME280;67954;47.618;17.606;2023-08-06T02:44:57;98871.44;;;16.33;100.00
78643;BME280;67954;47.618;17.606;2023-08-06T02:45:29;98867.88;;;16.32;100.00
78643;BME280;67954;47.618;17.606;2023-08-06T02:46:00;98874.13;;;16.33;100.00